createdAt,value
2019-04-30T00:00:19.615Z,1013.76
2019-04-30T00:01:19.610Z,1013.76
2019-04-30T00:02:19.595Z,1013.73
2019-04-30T00:03:19.798Z,1013.73
2019-04-30T00:04:19.575Z,1013.72
2019-04-30T00:05:19.566Z,1013.68
2019-04-30T00:06:19.586Z,1013.71
2019-04-30T00:07:19.542Z,1013.70
2019-04-30T00:08:19.526Z,1013.73
2019-04-30T00:09:19.520Z,1013.68
2019-04-30T00:10:19.505Z,1013.74
2019-04-30T00:11:19.670Z,1013.73
2019-04-30T00:12:19.532Z,1013.69
2019-04-30T00:13:20.938Z,1013.72
2019-04-30T00:14:19.463Z,1013.71
2019-04-30T00:15:19.702Z,1013.67
2019-04-30T00:16:19.434Z,1013.66
2019-04-30T00:17:19.856Z,1013.66
2019-04-30T00:18:19.434Z,1013.74
2019-04-30T00:19:29.677Z,1013.65
2019-04-30T00:20:19.389Z,1013.67
2019-04-30T00:21:19.382Z,1013.63
2019-04-30T00:22:31.028Z,1013.69
2019-04-30T00:23:22.698Z,1013.70
2019-04-30T00:24:20.343Z,1013.67
2019-04-30T00:25:19.788Z,1013.66
2019-04-30T00:26:19.325Z,1013.63
2019-04-30T00:27:21.052Z,1013.66
2019-04-30T00:28:20.305Z,1013.61
2019-04-30T00:29:26.655Z,1013.62
2019-04-30T00:30:20.317Z,1013.58
2019-04-30T00:31:23.606Z,1013.59
2019-04-30T00:32:20.261Z,1013.64
2019-04-30T00:33:22.263Z,1013.60
2019-04-30T00:34:19.235Z,1013.58
2019-04-30T00:35:19.767Z,1013.51
2019-04-30T00:36:19.218Z,1013.53
2019-04-30T00:37:19.201Z,1013.52
2019-04-30T00:38:19.197Z,1013.53
2019-04-30T00:39:19.180Z,1013.59
2019-04-30T00:40:21.644Z,1013.55
2019-04-30T00:41:20.195Z,1013.47
2019-04-30T00:42:24.259Z,1013.42
2019-04-30T00:43:20.133Z,1013.40
2019-04-30T00:44:20.024Z,1013.39
2019-04-30T00:45:19.112Z,1013.40
2019-04-30T00:46:25.317Z,1013.46
2019-04-30T00:47:20.136Z,1013.44
2019-04-30T00:48:26.924Z,1013.43
2019-04-30T00:49:23.365Z,1013.43
2019-04-30T00:50:35.860Z,1013.40
2019-04-30T00:51:21.308Z,1013.42
2019-04-30T00:52:19.036Z,1013.37
2019-04-30T00:53:19.061Z,1013.38
2019-04-30T00:54:22.361Z,1013.41
2019-04-30T00:55:20.004Z,1013.41
2019-04-30T00:56:19.904Z,1013.41
2019-04-30T00:57:18.977Z,1013.40
2019-04-30T00:58:24.865Z,1013.43
2019-04-30T00:59:19.996Z,1013.40
2019-04-30T01:00:25.296Z,1013.42
2019-04-30T01:01:19.929Z,1013.43
2019-04-30T01:02:27.693Z,1013.41
2019-04-30T01:03:19.911Z,1013.41
2019-04-30T01:04:19.394Z,1013.40
2019-04-30T01:05:18.905Z,1013.41
2019-04-30T01:06:27.507Z,1013.42
2019-04-30T01:07:19.864Z,1013.40
2019-04-30T01:08:21.124Z,1013.37
2019-04-30T01:09:19.844Z,1013.39
2019-04-30T01:10:19.725Z,1013.37
2019-04-30T01:11:18.860Z,1013.36
2019-04-30T01:12:27.784Z,1013.33
2019-04-30T01:13:19.798Z,1013.33
2019-04-30T01:14:18.977Z,1013.27
2019-04-30T01:15:19.116Z,1013.32
2019-04-30T01:16:19.552Z,1013.27
2019-04-30T01:17:18.984Z,1013.20
2019-04-30T01:18:19.324Z,1013.22
2019-04-30T01:19:29.463Z,1013.25
2019-04-30T01:20:19.721Z,1013.23
2019-04-30T01:21:29.110Z,1013.23
2019-04-30T01:22:21.567Z,1013.18
2019-04-30T01:23:19.700Z,1013.16
2019-04-30T01:24:19.070Z,1013.18
2019-04-30T01:25:20.671Z,1013.19
2019-04-30T01:26:18.807Z,1013.16
2019-04-30T01:27:18.837Z,1013.18
2019-04-30T01:28:23.187Z,1013.21
2019-04-30T01:29:19.622Z,1013.19
2019-04-30T01:30:22.588Z,1013.19
2019-04-30T01:31:18.802Z,1013.18
2019-04-30T01:32:20.989Z,1013.18
2019-04-30T01:33:19.123Z,1013.17
2019-04-30T01:34:19.568Z,1013.15
2019-04-30T01:35:19.104Z,1013.19
2019-04-30T01:36:19.321Z,1013.17
2019-04-30T01:37:20.479Z,1013.20
2019-04-30T01:38:19.559Z,1013.20
2019-04-30T01:39:19.565Z,1013.20
2019-04-30T01:40:18.962Z,1013.22
2019-04-30T01:41:20.345Z,1013.18
2019-04-30T01:42:19.475Z,1013.18
2019-04-30T01:43:23.198Z,1013.18
2019-04-30T01:44:19.623Z,1013.14
2019-04-30T01:45:18.874Z,1013.13
2019-04-30T01:46:18.958Z,1013.10
2019-04-30T01:47:21.535Z,1013.13
2019-04-30T01:48:19.450Z,1013.13
2019-04-30T01:49:20.221Z,1013.16
2019-04-30T01:50:19.511Z,1013.13
2019-04-30T01:51:21.654Z,1013.10
2019-04-30T01:52:35.033Z,1013.08
2019-04-30T01:53:19.356Z,1013.06
2019-04-30T01:54:24.045Z,1013.07
2019-04-30T01:55:19.727Z,1013.02
2019-04-30T01:56:19.212Z,1013.07
2019-04-30T01:57:19.295Z,1013.01
2019-04-30T01:58:19.402Z,1013.02
2019-04-30T01:59:19.066Z,1013.05
2019-04-30T02:00:19.579Z,1013.07
2019-04-30T02:01:19.035Z,1013.04
2019-04-30T02:02:18.568Z,1013.09
2019-04-30T02:03:19.316Z,1012.99
2019-04-30T02:04:19.565Z,1013.03
2019-04-30T02:05:18.886Z,1013.03
2019-04-30T02:06:19.679Z,1013.00
2019-04-30T02:07:19.064Z,1013.03
2019-04-30T02:08:19.542Z,1013.02
2019-04-30T02:09:18.855Z,1013.05
2019-04-30T02:10:18.651Z,1013.04
2019-04-30T02:11:18.964Z,1013.04
2019-04-30T02:12:19.719Z,1013.01
2019-04-30T02:13:18.905Z,1013.05
2019-04-30T02:14:18.916Z,1013.04
2019-04-30T02:15:19.259Z,1013.04
2019-04-30T02:16:18.753Z,1013.05
2019-04-30T02:17:19.253Z,1013.05
2019-04-30T02:18:19.526Z,1013.12
2019-04-30T02:19:18.831Z,1013.09
2019-04-30T02:20:18.607Z,1013.09
2019-04-30T02:21:19.479Z,1013.13
2019-04-30T02:22:18.926Z,1013.12
2019-04-30T02:23:29.708Z,1013.12
2019-04-30T02:24:19.221Z,1013.08
2019-04-30T02:25:19.520Z,1013.09
2019-04-30T02:26:18.699Z,1013.08
2019-04-30T02:27:19.133Z,1013.10
2019-04-30T02:28:18.996Z,1013.10
2019-04-30T02:29:19.119Z,1013.11
2019-04-30T02:30:20.708Z,1013.09
2019-04-30T02:31:19.466Z,1013.11
2019-04-30T02:32:20.518Z,1013.05
2019-04-30T02:33:19.786Z,1013.02
2019-04-30T02:34:21.824Z,1013.05
2019-04-30T02:35:19.447Z,1013.01
2019-04-30T02:36:19.835Z,1013.00
2019-04-30T02:37:20.859Z,1013.01
2019-04-30T02:38:20.136Z,1012.97
2019-04-30T02:39:20.196Z,1013.01
2019-04-30T02:40:20.118Z,1013.01
2019-04-30T02:41:19.342Z,1013.05
2019-04-30T02:42:20.114Z,1013.05
2019-04-30T02:43:20.189Z,1013.07
2019-04-30T02:44:19.591Z,1013.01
2019-04-30T02:45:19.742Z,1013.00
2019-04-30T02:46:19.201Z,1013.00
2019-04-30T02:47:20.225Z,1013.03
2019-04-30T02:48:19.439Z,1013.01
2019-04-30T02:49:20.179Z,1012.99
2019-04-30T02:50:19.825Z,1012.96
2019-04-30T02:51:20.020Z,1012.92
2019-04-30T02:52:19.575Z,1012.93
2019-04-30T02:53:19.905Z,1012.91
2019-04-30T02:54:29.650Z,1012.94
2019-04-30T02:55:19.441Z,1012.92
2019-04-30T02:56:20.276Z,1012.92
2019-04-30T02:57:22.883Z,1012.86
2019-04-30T02:58:20.992Z,1012.88
2019-04-30T02:59:20.078Z,1012.88
2019-04-30T03:00:20.542Z,1012.86
2019-04-30T03:01:19.947Z,1012.87
2019-04-30T03:02:19.549Z,1012.88
2019-04-30T03:03:20.300Z,1012.85
2019-04-30T03:04:19.629Z,1012.86
2019-04-30T03:05:20.169Z,1012.82
2019-04-30T03:06:20.373Z,1012.84
2019-04-30T03:07:19.419Z,1012.84
2019-04-30T03:08:19.848Z,1012.83
2019-04-30T03:09:20.074Z,1012.83
2019-04-30T03:10:19.782Z,1012.77
2019-04-30T03:11:20.294Z,1012.85
2019-04-30T03:12:19.732Z,1012.85
2019-04-30T03:13:19.973Z,1012.84
2019-04-30T03:14:19.876Z,1012.88
2019-04-30T03:15:22.310Z,1012.88
2019-04-30T03:16:20.757Z,1012.87
2019-04-30T03:17:17.433Z,1012.89
2019-04-30T03:18:19.673Z,1012.90
2019-04-30T03:19:19.649Z,1012.88
2019-04-30T03:20:31.337Z,1012.86
2019-04-30T03:21:19.141Z,1012.88
2019-04-30T03:22:20.147Z,1012.90
2019-04-30T03:23:19.514Z,1012.87
2019-04-30T03:24:19.985Z,1012.80
2019-04-30T03:25:29.853Z,1012.89
2019-04-30T03:26:19.841Z,1012.81
2019-04-30T03:27:17.330Z,1012.77
2019-04-30T03:28:19.962Z,1012.83
2019-04-30T03:29:23.364Z,1012.83
2019-04-30T03:30:21.741Z,1012.81
2019-04-30T03:31:21.970Z,1012.76
2019-04-30T03:32:22.259Z,1012.81
2019-04-30T03:33:17.257Z,1012.80
2019-04-30T03:34:24.562Z,1012.78
2019-04-30T03:35:22.331Z,1012.83
2019-04-30T03:36:21.331Z,1012.80
2019-04-30T03:37:19.687Z,1012.75
2019-04-30T03:38:17.202Z,1012.81
2019-04-30T03:39:19.693Z,1012.75
2019-04-30T03:40:20.093Z,1012.78
2019-04-30T03:41:19.714Z,1012.75
2019-04-30T03:42:19.685Z,1012.76
2019-04-30T03:43:17.141Z,1012.75
2019-04-30T03:44:24.699Z,1012.75
2019-04-30T03:45:20.422Z,1012.72
2019-04-30T03:46:19.300Z,1012.75
2019-04-30T03:47:17.101Z,1012.78
2019-04-30T03:48:19.819Z,1012.68
2019-04-30T03:49:19.960Z,1012.70
2019-04-30T03:50:19.833Z,1012.71
2019-04-30T03:51:17.062Z,1012.74
2019-04-30T03:52:19.736Z,1012.76
2019-04-30T03:53:17.035Z,1012.78
2019-04-30T03:54:19.188Z,1012.72
2019-04-30T03:55:17.014Z,1012.76
2019-04-30T03:56:29.848Z,1012.77
2019-04-30T03:57:16.992Z,1012.79
2019-04-30T03:58:20.875Z,1012.75
2019-04-30T03:59:19.689Z,1012.79
2019-04-30T04:00:16.962Z,1012.79
2019-04-30T04:01:19.434Z,1012.81
2019-04-30T04:02:16.952Z,1012.78
2019-04-30T04:03:19.707Z,1012.83
2019-04-30T04:04:16.925Z,1012.79
2019-04-30T04:05:16.905Z,1012.80
2019-04-30T04:06:21.282Z,1012.84
2019-04-30T04:07:16.881Z,1012.83
2019-04-30T04:08:19.322Z,1012.87
2019-04-30T04:09:16.883Z,1012.81
2019-04-30T04:10:19.301Z,1012.86
2019-04-30T04:11:16.833Z,1012.85
2019-04-30T04:12:16.852Z,1012.84
2019-04-30T04:13:16.815Z,1012.84
2019-04-30T04:14:19.587Z,1012.82
2019-04-30T04:15:16.803Z,1012.81
2019-04-30T04:16:19.347Z,1012.78
2019-04-30T04:17:16.774Z,1012.78
2019-04-30T04:18:16.764Z,1012.80
2019-04-30T04:19:19.476Z,1012.79
2019-04-30T04:20:16.774Z,1012.77
2019-04-30T04:21:18.090Z,1012.82
2019-04-30T04:22:16.714Z,1012.80
2019-04-30T04:23:19.116Z,1012.78
2019-04-30T04:24:16.693Z,1012.81
2019-04-30T04:25:16.684Z,1012.78
2019-04-30T04:26:16.693Z,1012.79
2019-04-30T04:27:29.810Z,1012.83
2019-04-30T04:28:16.648Z,1012.76
2019-04-30T04:29:19.372Z,1012.78
2019-04-30T04:30:16.632Z,1012.81
2019-04-30T04:31:19.084Z,1012.73
2019-04-30T04:32:16.657Z,1012.73
2019-04-30T04:33:16.594Z,1012.71
2019-04-30T04:34:19.444Z,1012.70
2019-04-30T04:35:16.582Z,1012.76
2019-04-30T04:36:16.561Z,1012.69
2019-04-30T04:37:16.551Z,1012.74
2019-04-30T04:38:16.574Z,1012.72
2019-04-30T04:39:16.529Z,1012.76
2019-04-30T04:40:16.513Z,1012.73
2019-04-30T04:41:16.505Z,1012.70
2019-04-30T04:42:19.096Z,1012.70
2019-04-30T04:43:16.479Z,1012.68
2019-04-30T04:44:16.477Z,1012.70
2019-04-30T04:45:19.576Z,1012.66
2019-04-30T04:46:16.452Z,1012.68
2019-04-30T04:47:19.451Z,1012.68
2019-04-30T04:48:16.423Z,1012.67
2019-04-30T04:49:16.470Z,1012.65
2019-04-30T04:50:16.405Z,1012.68
2019-04-30T04:51:31.320Z,1012.62
2019-04-30T04:52:20.625Z,1012.63
2019-04-30T04:53:16.378Z,1012.63
2019-04-30T04:54:16.364Z,1012.59
2019-04-30T04:55:16.404Z,1012.64
2019-04-30T04:56:18.948Z,1012.63
2019-04-30T04:57:19.304Z,1012.66
2019-04-30T04:59:30.332Z,1012.65
2019-04-30T05:00:30.366Z,1012.62
2019-04-30T05:01:30.313Z,1012.64
2019-04-30T05:02:32.638Z,1012.65
2019-04-30T05:03:30.290Z,1012.64
2019-04-30T05:04:30.279Z,1012.62
2019-04-30T05:05:30.263Z,1012.63
2019-04-30T05:06:30.261Z,1012.59
2019-04-30T05:07:30.244Z,1012.66
2019-04-30T05:08:30.229Z,1012.60
2019-04-30T05:09:30.214Z,1012.59
2019-04-30T05:10:30.212Z,1012.59
2019-04-30T05:11:31.722Z,1012.61
2019-04-30T05:12:30.184Z,1012.60
2019-04-30T05:13:30.177Z,1012.61
2019-04-30T05:14:30.160Z,1012.57
2019-04-30T05:15:30.153Z,1012.56
2019-04-30T05:16:30.139Z,1012.59
2019-04-30T05:17:32.080Z,1012.54
2019-04-30T05:18:30.124Z,1012.58
2019-04-30T05:19:30.105Z,1012.56
2019-04-30T05:20:30.094Z,1012.58
2019-04-30T05:21:41.686Z,1012.54
2019-04-30T05:22:31.122Z,1012.56
2019-04-30T05:23:30.068Z,1012.56
2019-04-30T05:24:30.057Z,1012.54
2019-04-30T05:25:30.041Z,1012.55
2019-04-30T05:26:30.031Z,1012.54
2019-04-30T05:27:30.365Z,1012.55
2019-04-30T05:28:30.284Z,1012.50
2019-04-30T05:29:38.666Z,1012.52
2019-04-30T05:30:29.980Z,1012.54
2019-04-30T05:31:29.975Z,1012.55
2019-04-30T05:32:29.965Z,1012.52
2019-04-30T05:33:29.948Z,1012.56
2019-04-30T05:34:29.980Z,1012.52
2019-04-30T05:35:31.107Z,1012.49
2019-04-30T05:36:29.922Z,1012.47
2019-04-30T05:37:29.905Z,1012.50
2019-04-30T05:38:31.370Z,1012.51
2019-04-30T05:39:29.878Z,1012.51
2019-04-30T05:40:29.923Z,1012.53
2019-04-30T05:41:29.863Z,1012.50
2019-04-30T05:42:29.849Z,1012.53
2019-04-30T05:43:29.837Z,1012.47
2019-04-30T05:44:29.935Z,1012.47
2019-04-30T05:45:29.818Z,1012.46
2019-04-30T05:46:30.028Z,1012.49
2019-04-30T05:47:29.790Z,1012.47
2019-04-30T05:48:29.782Z,1012.46
2019-04-30T05:49:29.771Z,1012.36
2019-04-30T05:50:29.760Z,1012.38
2019-04-30T05:51:29.752Z,1012.42
2019-04-30T05:52:29.779Z,1012.44
2019-04-30T05:53:29.734Z,1012.41
2019-04-30T05:54:29.720Z,1012.42
2019-04-30T05:55:29.704Z,1012.42
2019-04-30T05:56:30.470Z,1012.38
2019-04-30T05:57:29.679Z,1012.39
2019-04-30T05:58:30.128Z,1012.37
2019-04-30T05:59:29.659Z,1012.35
2019-04-30T06:00:41.096Z,1012.46
2019-04-30T06:01:29.711Z,1012.42
2019-04-30T06:02:33.649Z,1012.42
2019-04-30T06:03:33.034Z,1012.44
2019-04-30T06:04:29.631Z,1012.42
2019-04-30T06:05:29.590Z,1012.40
2019-04-30T06:06:29.579Z,1012.41
2019-04-30T06:07:29.984Z,1012.39
2019-04-30T06:08:29.556Z,1012.39
2019-04-30T06:09:33.753Z,1012.40
2019-04-30T06:10:29.599Z,1012.38
2019-04-30T06:11:29.527Z,1012.32
2019-04-30T06:12:29.518Z,1012.41
2019-04-30T06:13:31.962Z,1012.32
2019-04-30T06:14:29.499Z,1012.39
2019-04-30T06:15:29.488Z,1012.32
2019-04-30T06:16:29.867Z,1012.35
2019-04-30T06:17:29.469Z,1012.34
2019-04-30T06:18:29.486Z,1012.30
2019-04-30T06:19:29.438Z,1012.36
2019-04-30T06:20:29.425Z,1012.34
2019-04-30T06:21:29.573Z,1012.31
2019-04-30T06:22:29.405Z,1012.25
2019-04-30T06:23:29.533Z,1012.21
2019-04-30T06:24:30.270Z,1012.26
2019-04-30T06:25:37.197Z,1012.23
2019-04-30T06:26:30.366Z,1012.24
2019-04-30T06:27:29.354Z,1012.23
2019-04-30T06:28:29.335Z,1012.20
2019-04-30T06:29:29.379Z,1012.22
2019-04-30T06:30:29.824Z,1012.16
2019-04-30T06:31:40.399Z,1012.22
2019-04-30T06:32:29.578Z,1012.19
2019-04-30T06:33:29.288Z,1012.19
2019-04-30T06:34:29.496Z,1012.16
2019-04-30T06:35:29.540Z,1012.16
2019-04-30T06:36:29.250Z,1012.10
2019-04-30T06:37:31.612Z,1012.11
2019-04-30T06:38:29.264Z,1012.10
2019-04-30T06:39:29.217Z,1012.10
2019-04-30T06:40:29.453Z,1012.06
2019-04-30T06:41:29.705Z,1012.09
2019-04-30T06:42:29.383Z,1012.03
2019-04-30T06:43:29.174Z,1012.05
2019-04-30T06:44:37.251Z,1012.08
2019-04-30T06:45:30.145Z,1012.03
2019-04-30T06:46:29.137Z,1012.04
2019-04-30T06:47:33.124Z,1011.98
2019-04-30T06:48:29.506Z,1012.02
2019-04-30T06:49:29.105Z,1012.07
2019-04-30T06:50:29.294Z,1011.94
2019-04-30T06:51:30.748Z,1011.98
2019-04-30T06:52:29.379Z,1011.95
2019-04-30T06:53:29.339Z,1011.94
2019-04-30T06:54:29.049Z,1011.88
2019-04-30T06:55:30.819Z,1011.94
2019-04-30T06:56:29.036Z,1011.95
2019-04-30T06:57:29.544Z,1011.92
2019-04-30T06:58:29.285Z,1011.89
2019-04-30T06:59:29.959Z,1011.87
2019-04-30T07:00:33.773Z,1011.93
2019-04-30T07:01:29.986Z,1011.90
2019-04-30T07:02:39.414Z,1011.95
2019-04-30T07:03:29.171Z,1011.90
2019-04-30T07:04:29.383Z,1011.89
2019-04-30T07:05:28.927Z,1011.87
2019-04-30T07:06:31.899Z,1011.85
2019-04-30T07:07:37.058Z,1011.87
2019-04-30T07:08:38.893Z,1011.85
2019-04-30T07:09:31.654Z,1011.85
2019-04-30T07:10:29.870Z,1011.80
2019-04-30T07:11:29.350Z,1011.84
2019-04-30T07:12:30.614Z,1011.82
2019-04-30T07:13:29.723Z,1011.77
2019-04-30T07:14:29.280Z,1011.79
2019-04-30T07:15:29.605Z,1011.79
2019-04-30T07:16:29.827Z,1011.79
2019-04-30T07:17:29.312Z,1011.76
2019-04-30T07:18:28.926Z,1011.75
2019-04-30T07:19:34.559Z,1011.73
2019-04-30T07:20:33.712Z,1011.75
2019-04-30T07:21:31.192Z,1011.76
2019-04-30T07:22:39.032Z,1011.77
2019-04-30T07:23:29.723Z,1011.73
2019-04-30T07:24:29.625Z,1011.75
2019-04-30T07:25:29.314Z,1011.75
2019-04-30T07:26:29.017Z,1011.75
2019-04-30T07:27:31.885Z,1011.73
2019-04-30T07:28:43.776Z,1011.68
2019-04-30T07:29:29.714Z,1011.73
2019-04-30T07:30:30.714Z,1011.70
2019-04-30T07:31:29.565Z,1011.71
2019-04-30T07:32:28.887Z,1011.70
2019-04-30T07:33:39.779Z,1011.72
2019-04-30T07:34:31.684Z,1011.74
2019-04-30T07:35:29.605Z,1011.69
2019-04-30T07:36:43.299Z,1011.71
2019-04-30T07:37:29.613Z,1011.66
2019-04-30T07:38:29.517Z,1011.70
2019-04-30T07:39:32.052Z,1011.64
2019-04-30T07:40:29.270Z,1011.68
2019-04-30T07:41:30.778Z,1011.66
2019-04-30T07:42:29.382Z,1011.66
2019-04-30T07:43:28.942Z,1011.59
2019-04-30T07:44:33.326Z,1011.57
2019-04-30T07:45:32.034Z,1011.59
2019-04-30T07:46:29.951Z,1011.52
2019-04-30T07:47:29.589Z,1011.55
2019-04-30T07:48:29.800Z,1011.53
2019-04-30T07:49:46.183Z,1011.56
2019-04-30T07:50:31.315Z,1011.61
2019-04-30T07:51:32.055Z,1011.60
2019-04-30T07:52:32.984Z,1011.57
2019-04-30T07:53:30.803Z,1011.52
2019-04-30T07:54:30.076Z,1011.52
2019-04-30T07:55:29.528Z,1011.55
2019-04-30T07:56:32.456Z,1011.60
2019-04-30T07:57:32.315Z,1011.54
2019-04-30T07:58:29.893Z,1011.48
2019-04-30T07:59:30.161Z,1011.51
2019-04-30T08:00:30.912Z,1011.48
2019-04-30T08:01:29.501Z,1011.45
2019-04-30T08:02:29.733Z,1011.43
2019-04-30T08:03:30.172Z,1011.49
2019-04-30T08:04:40.847Z,1011.44
2019-04-30T08:05:29.883Z,1011.49
2019-04-30T08:06:31.051Z,1011.51
2019-04-30T08:07:29.822Z,1011.46
2019-04-30T08:08:30.050Z,1011.43
2019-04-30T08:09:38.613Z,1011.39
2019-04-30T08:10:29.771Z,1011.48
2019-04-30T08:11:29.309Z,1011.50
2019-04-30T08:12:33.561Z,1011.45
2019-04-30T08:13:32.370Z,1011.45
2019-04-30T08:14:28.836Z,1011.45
2019-04-30T08:15:29.542Z,1011.44
2019-04-30T08:16:28.799Z,1011.43
2019-04-30T08:17:28.920Z,1011.45
2019-04-30T08:18:29.479Z,1011.45
2019-04-30T08:19:28.707Z,1011.39
2019-04-30T08:20:29.555Z,1011.41
2019-04-30T08:21:28.800Z,1011.43
2019-04-30T08:22:29.716Z,1011.42
2019-04-30T08:23:34.967Z,1011.47
2019-04-30T08:24:29.274Z,1011.43
2019-04-30T08:25:29.049Z,1011.39
2019-04-30T08:26:28.728Z,1011.40
2019-04-30T08:27:29.614Z,1011.43
2019-04-30T08:28:30.168Z,1011.41
2019-04-30T08:29:29.466Z,1011.40
2019-04-30T08:30:30.026Z,1011.39
2019-04-30T08:31:29.195Z,1011.40
2019-04-30T08:32:28.961Z,1011.35
2019-04-30T08:33:29.258Z,1011.39
2019-04-30T08:34:29.262Z,1011.35
2019-04-30T08:35:39.778Z,1011.33
2019-04-30T08:36:29.783Z,1011.27
2019-04-30T08:37:28.827Z,1011.35
2019-04-30T08:38:29.943Z,1011.27
2019-04-30T08:39:31.607Z,1011.28
2019-04-30T08:40:29.611Z,1011.27
2019-04-30T08:41:29.245Z,1011.25
2019-04-30T08:42:31.761Z,1011.25
2019-04-30T08:43:29.297Z,1011.27
2019-04-30T08:44:29.483Z,1011.24
2019-04-30T08:45:31.457Z,1011.26
2019-04-30T08:46:28.881Z,1011.19
2019-04-30T08:47:29.122Z,1011.23
2019-04-30T08:48:43.869Z,1011.25
2019-04-30T08:49:30.401Z,1011.26
2019-04-30T08:50:29.701Z,1011.25
2019-04-30T08:51:30.342Z,1011.25
2019-04-30T08:52:27.743Z,1011.26
2019-04-30T08:53:32.887Z,1011.25
2019-04-30T08:54:29.513Z,1011.20
2019-04-30T08:55:30.298Z,1011.24
2019-04-30T08:56:29.663Z,1011.28
2019-04-30T08:57:29.418Z,1011.24
2019-04-30T08:58:29.183Z,1011.20
2019-04-30T08:59:29.453Z,1011.20
2019-04-30T09:00:29.607Z,1011.21
2019-04-30T09:01:29.393Z,1011.19
2019-04-30T09:02:28.970Z,1011.19
2019-04-30T09:03:29.483Z,1011.15
2019-04-30T09:04:29.095Z,1011.13
2019-04-30T09:05:30.032Z,1011.12
2019-04-30T09:06:38.964Z,1011.10
2019-04-30T09:07:29.665Z,1011.08
2019-04-30T09:08:29.322Z,1011.09
2019-04-30T09:09:29.450Z,1011.11
2019-04-30T09:10:29.290Z,1011.03
2019-04-30T09:11:34.109Z,1011.10
2019-04-30T09:12:29.978Z,1011.09
2019-04-30T09:13:28.683Z,1011.03
2019-04-30T09:14:29.528Z,1011.01
2019-04-30T09:15:29.064Z,1011.04
2019-04-30T09:16:29.364Z,1010.96
2019-04-30T09:17:29.593Z,1010.91
2019-04-30T09:18:29.175Z,1010.92
2019-04-30T09:19:29.580Z,1010.91
2019-04-30T09:20:29.143Z,1010.93
2019-04-30T09:21:27.415Z,1010.95
2019-04-30T09:22:29.233Z,1010.97
2019-04-30T09:23:34.317Z,1010.98
2019-04-30T09:24:30.782Z,1010.94
2019-04-30T09:25:28.694Z,1010.88
2019-04-30T09:26:29.033Z,1010.85
2019-04-30T09:27:29.450Z,1010.83
2019-04-30T09:28:29.350Z,1010.83
2019-04-30T09:29:29.099Z,1010.80
2019-04-30T09:30:27.388Z,1010.79
2019-04-30T09:31:29.391Z,1010.80
2019-04-30T09:32:29.126Z,1010.74
2019-04-30T09:33:29.299Z,1010.76
2019-04-30T09:34:29.116Z,1010.79
2019-04-30T09:35:29.592Z,1010.78
2019-04-30T09:36:29.082Z,1010.78
2019-04-30T09:37:39.074Z,1010.73
2019-04-30T09:38:28.977Z,1010.81
2019-04-30T09:39:29.355Z,1010.82
2019-04-30T09:40:30.263Z,1010.79
2019-04-30T09:41:28.800Z,1010.75
2019-04-30T09:42:29.484Z,1010.70
2019-04-30T09:43:28.612Z,1010.74
2019-04-30T09:44:30.533Z,1010.72
2019-04-30T09:45:28.573Z,1010.62
2019-04-30T09:46:29.699Z,1010.63
2019-04-30T09:47:27.133Z,1010.64
2019-04-30T09:48:30.296Z,1010.57
2019-04-30T09:49:27.119Z,1010.59
2019-04-30T09:50:28.966Z,1010.60
2019-04-30T09:51:29.404Z,1010.62
2019-04-30T09:52:30.229Z,1010.59
2019-04-30T09:53:27.079Z,1010.63
2019-04-30T09:54:29.051Z,1010.64
2019-04-30T09:55:28.908Z,1010.63
2019-04-30T09:56:27.033Z,1010.67
2019-04-30T09:57:29.023Z,1010.69
2019-04-30T09:58:27.021Z,1010.61
2019-04-30T09:59:28.948Z,1010.61
2019-04-30T10:00:26.992Z,1010.63
2019-04-30T10:01:26.981Z,1010.66
2019-04-30T10:02:28.952Z,1010.65
2019-04-30T10:03:27.208Z,1010.69
2019-04-30T10:04:29.686Z,1010.59
2019-04-30T10:05:29.062Z,1010.61
2019-04-30T10:06:39.024Z,1010.57
2019-04-30T10:07:29.372Z,1010.56
2019-04-30T10:08:47.885Z,1010.65
2019-04-30T10:09:29.328Z,1010.59
2019-04-30T10:10:28.815Z,1010.56
2019-04-30T10:11:26.867Z,1010.56
2019-04-30T10:12:26.862Z,1010.54
2019-04-30T10:13:26.850Z,1010.48
2019-04-30T10:14:26.871Z,1010.52
2019-04-30T10:15:28.842Z,1010.57
2019-04-30T10:16:26.814Z,1010.53
2019-04-30T10:17:26.805Z,1010.49
2019-04-30T10:18:26.798Z,1010.49
2019-04-30T10:19:26.780Z,1010.42
2019-04-30T10:20:26.775Z,1010.42
2019-04-30T10:21:26.763Z,1010.42
2019-04-30T10:22:26.750Z,1010.45
2019-04-30T10:23:26.735Z,1010.46
2019-04-30T10:24:26.730Z,1010.44
2019-04-30T10:25:26.718Z,1010.38
2019-04-30T10:26:26.709Z,1010.40
2019-04-30T10:27:29.183Z,1010.39
2019-04-30T10:28:26.679Z,1010.44
2019-04-30T10:29:26.676Z,1010.41
2019-04-30T10:30:26.698Z,1010.38
2019-04-30T10:31:26.651Z,1010.34
2019-04-30T10:32:26.641Z,1010.34
2019-04-30T10:33:28.576Z,1010.36
2019-04-30T10:34:26.621Z,1010.35
2019-04-30T10:35:28.455Z,1010.38
2019-04-30T10:36:26.611Z,1010.37
2019-04-30T10:37:28.630Z,1010.39
2019-04-30T10:38:26.573Z,1010.27
2019-04-30T10:39:38.777Z,1010.27
2019-04-30T10:40:28.567Z,1010.30
2019-04-30T10:41:28.624Z,1010.21
2019-04-30T10:42:28.718Z,1010.20
2019-04-30T10:43:26.514Z,1010.25
2019-04-30T10:44:26.505Z,1010.22
2019-04-30T10:45:28.636Z,1010.18
2019-04-30T10:46:26.486Z,1010.16
2019-04-30T10:47:26.510Z,1010.17
2019-04-30T10:48:26.466Z,1010.15
2019-04-30T10:49:26.503Z,1010.17
2019-04-30T10:50:26.439Z,1010.21
2019-04-30T10:51:26.434Z,1010.21
2019-04-30T10:52:26.428Z,1010.16
2019-04-30T10:53:26.451Z,1010.14
2019-04-30T10:54:27.017Z,1010.14
2019-04-30T10:55:26.382Z,1010.10
2019-04-30T10:56:26.376Z,1010.07
2019-04-30T10:57:28.380Z,1010.07
2019-04-30T10:58:26.352Z,1010.07
2019-04-30T10:59:26.348Z,1010.05
2019-04-30T11:00:26.326Z,1010.00
2019-04-30T11:01:26.318Z,1009.97
2019-04-30T11:02:26.307Z,1010.00
2019-04-30T11:03:26.293Z,1010.02
2019-04-30T11:04:26.323Z,1009.98
2019-04-30T11:05:26.273Z,1009.97
2019-04-30T11:06:26.266Z,1010.00
2019-04-30T11:07:26.254Z,1009.94
2019-04-30T11:08:26.238Z,1009.94
2019-04-30T11:09:26.233Z,1009.91
2019-04-30T11:10:39.936Z,1009.87
2019-04-30T11:11:26.208Z,1009.84
2019-04-30T11:12:26.201Z,1009.86
2019-04-30T11:13:26.184Z,1009.84
2019-04-30T11:14:26.180Z,1009.85
2019-04-30T11:15:26.164Z,1009.87
2019-04-30T11:16:26.178Z,1009.83
2019-04-30T11:17:26.292Z,1009.84
2019-04-30T11:18:26.360Z,1009.80
2019-04-30T11:19:26.344Z,1009.77
2019-04-30T11:20:26.320Z,1009.75
2019-04-30T11:21:26.313Z,1009.73
2019-04-30T11:22:26.321Z,1009.66
2019-04-30T11:23:26.288Z,1009.67
2019-04-30T11:24:35.892Z,1009.63
2019-04-30T11:25:27.772Z,1009.60
2019-04-30T11:26:26.576Z,1009.61
2019-04-30T11:27:26.552Z,1009.60
2019-04-30T11:28:26.596Z,1009.55
2019-04-30T11:29:26.228Z,1009.60
2019-04-30T11:30:26.267Z,1009.56
2019-04-30T11:31:26.284Z,1009.59
2019-04-30T11:32:26.283Z,1009.55
2019-04-30T11:33:26.106Z,1009.56
2019-04-30T11:34:28.116Z,1009.51
2019-04-30T11:35:25.944Z,1009.56
2019-04-30T11:36:25.938Z,1009.53
2019-04-30T11:37:25.923Z,1009.54
2019-04-30T11:38:25.929Z,1009.53
2019-04-30T11:39:25.925Z,1009.48
2019-04-30T11:40:33.930Z,1009.41
2019-04-30T11:42:39.322Z,1009.40
2019-04-30T11:43:39.471Z,1009.43
2019-04-30T11:44:40.331Z,1009.41
2019-04-30T11:45:39.241Z,1009.42
2019-04-30T11:46:39.230Z,1009.38
2019-04-30T11:47:39.217Z,1009.39
2019-04-30T11:48:39.258Z,1009.34
2019-04-30T11:49:39.201Z,1009.32
2019-04-30T11:50:39.426Z,1009.28
2019-04-30T11:51:39.319Z,1009.32
2019-04-30T11:52:39.165Z,1009.28
2019-04-30T11:53:39.159Z,1009.21
2019-04-30T11:54:48.703Z,1009.21
2019-04-30T11:55:40.129Z,1009.21
2019-04-30T11:56:39.120Z,1009.22
2019-04-30T11:57:39.742Z,1009.24
2019-04-30T11:58:39.102Z,1009.18
2019-04-30T11:59:39.598Z,1009.19
2019-04-30T12:00:39.527Z,1009.15
2019-04-30T12:01:39.065Z,1009.12
2019-04-30T12:02:39.360Z,1009.08
2019-04-30T12:03:39.433Z,1009.04
2019-04-30T12:04:39.404Z,1009.05
2019-04-30T12:05:39.028Z,1009.07
2019-04-30T12:06:39.453Z,1009.04
2019-04-30T12:07:38.998Z,1009.02